createdAt,value
2019-01-05T00:01:42.900Z,94.70
2019-01-05T00:04:28.297Z,94.70
2019-01-05T00:07:15.739Z,94.70
2019-01-05T00:10:01.626Z,94.70
2019-01-05T00:12:38.700Z,94.70
2019-01-05T00:15:07.603Z,94.80
2019-01-05T00:17:53.866Z,94.90
2019-01-05T00:20:26.140Z,95.10
2019-01-05T00:23:07.766Z,95.20
2019-01-05T00:25:36.724Z,95.30
2019-01-05T00:28:22.129Z,95.20
2019-01-05T00:31:08.143Z,95.60
2019-01-05T00:33:53.107Z,95.60
2019-01-05T00:36:44.841Z,95.60
2019-01-05T00:39:29.555Z,95.50
2019-01-05T00:42:17.189Z,95.40
2019-01-05T00:44:46.871Z,95.50
2019-01-05T00:47:31.443Z,95.60
2019-01-05T00:50:09.274Z,95.90
2019-01-05T00:52:44.693Z,96.10
2019-01-05T00:55:16.893Z,96.20
2019-01-05T00:57:52.099Z,96.20
2019-01-05T01:00:33.187Z,96.60
2019-01-05T01:03:19.071Z,96.50
2019-01-05T01:05:54.120Z,96.90
2019-01-05T01:08:27.893Z,97.30
2019-01-05T01:11:13.403Z,97.50
2019-01-05T01:13:59.104Z,97.70
2019-01-05T01:16:28.123Z,97.70
2019-01-05T01:19:03.278Z,98.00
2019-01-05T01:21:32.258Z,98.10
2019-01-05T01:24:19.846Z,98.10
2019-01-05T01:26:58.226Z,98.00
2019-01-05T01:29:27.176Z,98.20
2019-01-05T01:31:59.383Z,98.00
2019-01-05T01:34:28.291Z,98.20
2019-01-05T01:37:14.657Z,98.40
2019-01-05T01:39:49.683Z,98.60
2019-01-05T01:42:32.629Z,98.80
2019-01-05T01:45:11.037Z,98.50
2019-01-05T01:47:40.782Z,98.50
2019-01-05T01:50:26.715Z,98.80
2019-01-05T01:53:00.252Z,98.50
2019-01-05T01:55:41.036Z,98.60
2019-01-05T01:58:29.009Z,98.50
2019-01-05T02:01:15.874Z,98.60
2019-01-05T02:04:01.784Z,98.90
2019-01-05T02:06:38.313Z,98.30
2019-01-05T02:09:13.597Z,98.40
2019-01-05T02:11:47.408Z,98.30
2019-01-05T02:14:25.824Z,98.30
2019-01-05T02:17:17.565Z,98.00
2019-01-05T02:20:42.143Z,98.10
2019-01-05T02:24:01.298Z,98.00
2019-01-05T02:27:14.726Z,97.90
2019-01-05T02:30:16.767Z,97.80
2019-01-05T02:33:15.823Z,97.90
2019-01-05T02:36:21.378Z,97.80
2019-01-05T02:39:47.371Z,97.70
2019-01-05T02:43:03.022Z,97.70
2019-01-05T02:46:27.880Z,97.80
2019-01-05T02:49:39.804Z,97.90
2019-01-05T02:53:03.035Z,97.70
2019-01-05T02:56:21.450Z,98.20
2019-01-05T02:59:49.492Z,98.30
2019-01-05T03:03:05.131Z,98.60
2019-01-05T03:06:02.668Z,98.60
2019-01-05T03:09:32.836Z,98.60
2019-01-05T03:12:48.166Z,98.60
2019-01-05T03:15:49.234Z,98.60
2019-01-05T03:19:20.421Z,98.80
2019-01-05T03:22:49.262Z,99.10
2019-01-05T03:25:57.914Z,99.40
2019-01-05T03:28:57.638Z,99.50
2019-01-05T03:32:03.437Z,99.70
2019-01-05T03:35:12.983Z,99.60
2019-01-05T03:38:20.341Z,99.90
2019-01-05T03:41:56.994Z,99.90
2019-01-05T03:44:47.773Z,99.90
2019-01-05T03:47:44.339Z,99.80
2019-01-05T03:50:59.757Z,99.90
2019-01-05T03:54:30.717Z,99.90
2019-01-05T03:57:53.844Z,99.90
2019-01-05T04:00:50.793Z,99.90
2019-01-05T04:04:29.201Z,99.90
2019-01-05T04:07:32.936Z,99.90
2019-01-05T04:10:38.132Z,99.90
2019-01-05T04:13:45.510Z,99.90
2019-01-05T04:17:00.961Z,99.90
2019-01-05T04:20:24.194Z,99.90
2019-01-05T04:23:33.440Z,99.90
2019-01-05T04:26:55.851Z,99.90
2019-01-05T04:30:49.288Z,99.90
2019-01-05T04:33:48.885Z,99.90
2019-01-05T04:36:59.584Z,99.90
2019-01-05T04:40:14.011Z,99.90
2019-01-05T04:43:36.423Z,99.90
2019-01-05T04:46:54.491Z,99.90
2019-01-05T04:50:18.272Z,99.90
2019-01-05T04:53:43.102Z,99.90
2019-01-05T04:56:58.970Z,99.90
2019-01-05T05:00:24.533Z,99.90
2019-01-05T05:03:53.525Z,99.90
2019-01-05T05:07:18.892Z,99.90
2019-01-05T05:10:35.061Z,99.90
2019-01-05T05:13:38.721Z,99.90
2019-01-05T05:16:40.542Z,99.90
2019-01-05T05:19:54.211Z,99.90
2019-01-05T05:23:18.826Z,99.90
2019-01-05T05:26:38.216Z,99.90
2019-01-05T05:29:42.992Z,99.90
2019-01-05T05:32:47.917Z,99.90
2019-01-05T05:36:03.414Z,99.80
2019-01-05T05:39:26.475Z,99.90
2019-01-05T05:42:54.609Z,99.50
2019-01-05T05:46:14.577Z,99.70
2019-01-05T05:50:03.330Z,99.60
2019-01-05T05:53:01.370Z,99.50
2019-01-05T05:56:37.112Z,99.40
2019-01-05T06:00:08.858Z,99.60
2019-01-05T06:03:37.996Z,99.60
2019-01-05T06:06:45.493Z,99.90
2019-01-05T06:10:11.396Z,99.90
2019-01-05T06:13:31.944Z,99.90
2019-01-05T06:16:44.294Z,99.90
2019-01-05T06:20:07.761Z,99.90
2019-01-05T06:23:32.952Z,99.90
2019-01-05T06:27:01.097Z,99.90
2019-01-05T06:30:49.452Z,99.90
2019-01-05T06:34:18.101Z,99.90
2019-01-05T06:37:30.028Z,99.90
2019-01-05T06:41:11.636Z,99.90
2019-01-05T06:44:35.405Z,99.90
2019-01-05T06:48:04.563Z,99.90
2019-01-05T06:51:46.608Z,99.90
2019-01-05T06:55:03.658Z,99.90
2019-01-05T06:58:20.848Z,99.90
2019-01-05T07:01:34.386Z,99.90
2019-01-05T07:04:47.874Z,99.90
2019-01-05T07:08:12.525Z,99.90
2019-01-05T07:11:31.188Z,99.90
2019-01-05T07:14:46.014Z,99.90
2019-01-05T07:18:14.056Z,99.90
2019-01-05T07:21:42.547Z,99.90
2019-01-05T07:24:53.495Z,99.90
2019-01-05T07:27:59.107Z,99.90
2019-01-05T07:31:16.448Z,99.90
2019-01-05T07:34:41.438Z,99.90
2019-01-05T07:37:42.277Z,99.90
2019-01-05T07:40:59.886Z,99.90
2019-01-05T07:44:12.426Z,99.90
2019-01-05T07:47:27.149Z,99.90
2019-01-05T07:50:26.101Z,99.90
2019-01-05T07:53:45.463Z,99.90
2019-01-05T07:56:53.569Z,99.90
2019-01-05T08:00:02.677Z,99.90
2019-01-05T08:03:17.386Z,99.90
2019-01-05T08:06:29.274Z,99.90
2019-01-05T08:09:55.722Z,99.90
2019-01-05T08:13:07.707Z,99.90
2019-01-05T08:16:23.569Z,99.90
2019-01-05T08:19:49.918Z,99.90
2019-01-05T08:23:11.610Z,99.90
2019-01-05T08:26:32.172Z,99.90
2019-01-05T08:29:22.817Z,99.90
2019-01-05T08:32:29.018Z,99.90
2019-01-05T08:35:17.248Z,99.90
2019-01-05T08:38:43.663Z,99.90
2019-01-05T08:42:07.473Z,99.90
2019-01-05T08:45:42.453Z,99.90
2019-01-05T08:49:13.151Z,99.90
2019-01-05T08:52:20.557Z,99.90
2019-01-05T08:55:45.149Z,99.90
2019-01-05T08:59:13.174Z,99.90
2019-01-05T09:02:56.645Z,99.90
2019-01-05T09:06:16.083Z,99.90
2019-01-05T09:09:39.881Z,99.90
2019-01-05T09:13:04.015Z,99.90
2019-01-05T09:16:19.932Z,99.90
2019-01-05T09:19:44.372Z,99.90
2019-01-05T09:23:11.699Z,99.90
2019-01-05T09:26:25.933Z,99.90
2019-01-05T09:29:44.742Z,99.90
2019-01-05T09:33:05.885Z,99.90
2019-01-05T09:36:33.306Z,99.90
2019-01-05T09:39:40.809Z,99.90
2019-01-05T09:43:05.504Z,99.90
2019-01-05T09:46:41.849Z,99.90
2019-01-05T09:50:12.166Z,99.90
2019-01-05T09:53:30.373Z,99.40
2019-01-05T09:56:34.967Z,99.40
2019-01-05T09:59:50.505Z,99.30
2019-01-05T10:03:32.428Z,99.30
2019-01-05T10:06:54.080Z,99.40
2019-01-05T10:10:02.862Z,99.40
2019-01-05T10:13:16.492Z,99.40
2019-01-05T10:16:30.485Z,99.40
2019-01-05T10:20:22.064Z,99.10
2019-01-05T10:23:37.024Z,99.10
2019-01-05T10:26:43.372Z,98.90
2019-01-05T10:30:08.831Z,98.80
2019-01-05T10:33:28.922Z,99.00
2019-01-05T10:36:47.031Z,98.70
2019-01-05T10:40:18.801Z,98.40
2019-01-05T10:43:42.255Z,98.40
2019-01-05T10:46:59.806Z,98.30
2019-01-05T10:50:28.025Z,97.90
2019-01-05T10:53:34.466Z,97.70
2019-01-05T10:57:05.766Z,97.60
2019-01-05T11:00:24.162Z,97.40
2019-01-05T11:03:46.593Z,97.00
2019-01-05T11:06:53.507Z,97.10
2019-01-05T11:09:57.545Z,97.10
2019-01-05T11:12:59.951Z,97.10
2019-01-05T11:16:22.133Z,97.20
2019-01-05T11:19:32.877Z,96.70
2019-01-05T11:22:47.788Z,96.70
2019-01-05T11:26:05.489Z,96.50
2019-01-05T11:29:24.232Z,96.40
2019-01-05T11:32:23.680Z,96.30
2019-01-05T11:35:22.672Z,96.30
2019-01-05T11:38:48.279Z,96.10
2019-01-05T11:42:28.044Z,96.30
2019-01-05T11:45:50.468Z,96.50
2019-01-05T11:49:10.625Z,96.60
2019-01-05T11:52:34.666Z,96.00
2019-01-05T11:56:11.549Z,96.00
2019-01-05T11:59:16.046Z,96.20
2019-01-05T12:02:19.600Z,95.90
2019-01-05T12:05:46.145Z,96.20
2019-01-05T12:09:37.783Z,96.30
2019-01-05T12:12:33.960Z,96.40
2019-01-05T12:16:12.990Z,96.20
2019-01-05T12:19:40.819Z,96.50
2019-01-05T12:22:49.550Z,96.20
2019-01-05T12:26:20.768Z,95.90
2019-01-05T12:29:30.269Z,95.80
2019-01-05T12:32:58.099Z,95.80
2019-01-05T12:36:19.699Z,95.90
2019-01-05T12:39:41.505Z,95.80
2019-01-05T12:43:00.250Z,95.70
2019-01-05T12:46:18.994Z,95.60
2019-01-05T12:49:17.187Z,95.70
2019-01-05T12:52:52.340Z,95.60
2019-01-05T12:56:24.348Z,95.40
2019-01-05T12:59:46.494Z,95.30
2019-01-05T13:02:58.267Z,95.10
2019-01-05T13:06:34.009Z,94.90
2019-01-05T13:10:19.448Z,94.70
2019-01-05T13:13:45.613Z,94.90
2019-01-05T13:17:14.861Z,95.00
2019-01-05T13:20:44.610Z,95.20
2019-01-05T13:24:01.300Z,95.10
2019-01-05T13:27:32.187Z,94.90
2019-01-05T13:30:51.810Z,94.60
2019-01-05T13:34:24.267Z,94.40
2019-01-05T13:37:26.273Z,94.40
2019-01-05T13:40:57.600Z,94.50
2019-01-05T13:44:17.331Z,94.60
2019-01-05T13:47:46.775Z,94.50
2019-01-05T13:51:04.310Z,94.70
2019-01-05T13:53:55.261Z,94.70
2019-01-05T13:56:35.532Z,94.70
2019-01-05T13:59:22.537Z,94.90
2019-01-05T14:02:08.147Z,94.50
2019-01-05T14:04:49.246Z,94.60
2019-01-05T14:07:18.436Z,94.80
2019-01-05T14:09:59.436Z,95.00
2019-01-05T14:12:34.147Z,94.90
2019-01-05T14:15:20.007Z,94.60
2019-01-05T14:17:49.121Z,94.70
2019-01-05T14:20:30.358Z,94.80
2019-01-05T14:23:02.101Z,94.50
2019-01-05T14:25:31.011Z,94.50
2019-01-05T14:28:08.900Z,94.60
2019-01-05T14:30:54.494Z,94.70
2019-01-05T14:33:27.581Z,94.70
2019-01-05T14:36:14.045Z,94.80
2019-01-05T14:38:43.075Z,94.90
2019-01-05T14:41:11.966Z,95.00
2019-01-05T14:43:43.850Z,95.20
2019-01-05T14:46:29.729Z,95.30
2019-01-05T14:49:01.281Z,95.40
2019-01-05T14:51:35.983Z,95.40
2019-01-05T14:54:14.054Z,95.70
2019-01-05T14:56:54.850Z,95.40
2019-01-05T14:59:23.771Z,95.70
2019-01-05T15:02:09.450Z,95.50
2019-01-05T15:04:56.782Z,95.80
2019-01-05T15:07:38.009Z,95.80
2019-01-05T15:10:12.637Z,95.80
2019-01-05T15:12:41.479Z,95.80
2019-01-05T15:15:13.401Z,95.80
2019-01-05T15:17:42.237Z,95.80
2019-01-05T15:20:23.513Z,95.80
2019-01-05T15:22:55.221Z,95.80
2019-01-05T15:25:40.969Z,95.50
2019-01-05T15:28:09.948Z,95.80
2019-01-05T15:30:55.630Z,95.80
2019-01-05T15:33:27.566Z,95.80
2019-01-05T15:35:59.548Z,95.80
2019-01-05T15:38:39.884Z,95.80
2019-01-05T15:41:08.793Z,95.80
2019-01-05T15:43:54.762Z,95.80
2019-01-05T15:46:42.249Z,95.80
2019-01-05T15:49:23.390Z,95.80
2019-01-05T15:52:10.683Z,95.80
2019-01-05T15:54:49.060Z,95.80
2019-01-05T15:57:30.029Z,95.80
2019-01-05T15:59:58.931Z,95.80
2019-01-05T16:02:46.007Z,95.80
2019-01-05T16:05:20.992Z,95.80
2019-01-05T16:08:02.285Z,95.70
2019-01-05T16:10:39.963Z,95.80
2019-01-05T16:13:21.849Z,95.80
2019-01-05T16:15:59.908Z,95.80
2019-01-05T16:18:32.651Z,95.70
2019-01-05T16:21:18.419Z,95.80
2019-01-05T16:23:59.633Z,95.70
2019-01-05T16:26:40.598Z,95.80
2019-01-05T16:29:18.327Z,95.70
2019-01-05T16:31:47.266Z,95.70
2019-01-05T16:34:28.452Z,95.80
2019-01-05T16:36:57.348Z,95.80
2019-01-05T16:39:38.584Z,95.80
2019-01-05T16:42:11.370Z,95.60
2019-01-05T16:44:58.712Z,95.40
2019-01-05T16:47:30.697Z,95.70
2019-01-05T16:49:59.554Z,95.50
2019-01-05T16:52:45.455Z,95.50
2019-01-05T16:55:29.697Z,95.80
2019-01-05T16:57:58.701Z,95.80
2019-01-05T17:00:42.672Z,95.10
2019-01-05T17:03:20.470Z,95.30
2019-01-05T17:06:05.997Z,94.90
2019-01-05T17:08:43.738Z,94.90
2019-01-05T17:11:18.930Z,95.00
2019-01-05T17:14:00.275Z,94.80
2019-01-05T17:16:29.196Z,94.70
2019-01-05T17:18:58.215Z,95.10
2019-01-05T17:21:30.142Z,95.00
2019-01-05T17:24:05.383Z,94.90
2019-01-05T17:26:50.726Z,95.00
2019-01-05T17:29:22.781Z,95.00
2019-01-05T17:31:51.684Z,94.80
2019-01-05T17:34:20.643Z,94.70
2019-01-05T17:37:06.604Z,94.60
2019-01-05T17:39:54.040Z,94.70
2019-01-05T17:42:26.196Z,94.60
2019-01-05T17:45:12.202Z,94.50
2019-01-05T17:47:47.548Z,94.50
2019-01-05T17:50:33.209Z,94.40
2019-01-05T17:53:14.029Z,94.30
2019-01-05T17:55:49.234Z,94.40
2019-01-05T17:58:21.212Z,94.20
2019-01-05T18:01:06.749Z,94.10
2019-01-05T18:03:35.706Z,94.00
2019-01-05T18:06:21.458Z,94.10
2019-01-05T18:08:56.516Z,94.20
2019-01-05T18:11:42.630Z,94.10
2019-01-05T18:14:14.621Z,94.20
2019-01-05T18:17:00.309Z,94.60
2019-01-05T18:19:34.958Z,94.40
2019-01-05T18:22:13.085Z,93.90
2019-01-05T18:24:59.144Z,94.10
2019-01-05T18:27:28.055Z,94.10
2019-01-05T18:29:59.789Z,93.90
2019-01-05T18:32:45.859Z,93.90
2019-01-05T18:35:20.942Z,93.80
2019-01-05T18:38:06.564Z,93.80
2019-01-05T18:40:38.130Z,93.80
2019-01-05T18:43:16.417Z,94.10
2019-01-05T18:45:45.368Z,94.10
2019-01-05T18:48:14.270Z,94.00
2019-01-05T18:50:58.509Z,94.10
2019-01-05T18:53:27.469Z,93.90
2019-01-05T18:56:11.489Z,94.00
2019-01-05T18:58:43.143Z,93.80
2019-01-05T19:01:13.150Z,93.80
2019-01-05T19:03:45.346Z,94.00
2019-01-05T19:06:17.092Z,94.10
2019-01-05T19:08:46.035Z,93.90
2019-01-05T19:11:31.861Z,93.70
2019-01-05T19:14:00.747Z,93.90
2019-01-05T19:16:34.913Z,94.20
2019-01-05T19:19:04.049Z,94.00
2019-01-05T19:21:33.195Z,94.20
2019-01-05T19:24:08.483Z,93.70
2019-01-05T19:26:46.424Z,93.90
2019-01-05T19:29:33.764Z,94.20
2019-01-05T19:32:05.683Z,94.10
2019-01-05T19:34:51.517Z,94.10
2019-01-05T19:37:37.689Z,94.20
2019-01-05T19:40:19.863Z,93.90
2019-01-05T19:42:50.637Z,94.00
2019-01-05T19:45:37.305Z,93.90
2019-01-05T19:48:09.095Z,94.10
2019-01-05T19:50:54.965Z,94.40
2019-01-05T19:53:33.115Z,94.20
2019-01-05T19:56:08.433Z,94.40
2019-01-05T19:58:54.643Z,94.10
2019-01-05T20:01:23.700Z,94.10
2019-01-05T20:04:09.810Z,94.00
2019-01-05T20:06:55.183Z,93.90
2019-01-05T20:09:26.623Z,93.90
2019-01-05T20:12:11.065Z,94.20
2019-01-05T20:14:48.674Z,94.00
2019-01-05T20:17:34.452Z,94.00
2019-01-05T20:20:12.662Z,93.90
2019-01-05T20:22:41.955Z,93.90
2019-01-05T20:25:28.837Z,93.90
2019-01-05T20:28:06.837Z,94.20
2019-01-05T20:30:35.813Z,94.40
2019-01-05T20:33:22.768Z,94.50
2019-01-05T20:35:54.892Z,94.50
2019-01-05T20:38:29.809Z,94.70
2019-01-05T20:41:07.866Z,94.60
2019-01-05T20:43:36.882Z,94.80
2019-01-05T20:46:22.885Z,94.90
2019-01-05T20:48:51.930Z,95.10
2019-01-05T20:51:23.958Z,95.10
2019-01-05T20:54:09.889Z,94.90
2019-01-05T20:56:44.972Z,95.00
2019-01-05T20:59:23.086Z,95.20
2019-01-05T21:01:52.160Z,95.00
2019-01-05T21:04:36.337Z,95.00
2019-01-05T21:07:08.134Z,95.10
2019-01-05T21:09:53.337Z,95.20
2019-01-05T21:12:34.282Z,95.20
2019-01-05T21:15:06.059Z,95.30
2019-01-05T21:17:53.470Z,95.20
2019-01-05T21:20:25.146Z,95.00
2019-01-05T21:22:57.162Z,95.00
2019-01-05T21:25:26.089Z,95.00
2019-01-05T21:28:13.653Z,95.00
2019-01-05T21:30:42.587Z,95.20
2019-01-05T21:33:28.300Z,95.20
2019-01-05T21:36:14.156Z,95.10
2019-01-05T21:39:02.769Z,95.00
2019-01-05T21:41:40.682Z,95.00
2019-01-05T21:44:18.754Z,94.80
2019-01-05T21:46:56.550Z,95.00
2019-01-05T21:49:42.283Z,94.90
2019-01-05T21:52:23.513Z,94.80
2019-01-05T21:55:09.253Z,95.00
2019-01-05T21:57:47.529Z,95.10
2019-01-05T22:00:19.576Z,95.10
2019-01-05T22:02:49.957Z,95.00
2019-01-05T22:05:35.498Z,95.10
2019-01-05T22:08:07.569Z,95.30
2019-01-05T22:10:42.489Z,95.10
2019-01-05T22:13:28.317Z,95.20
2019-01-05T22:15:59.780Z,95.30
2019-01-05T22:18:30.285Z,95.10
2019-01-05T22:21:17.417Z,95.10
2019-01-05T22:23:46.567Z,95.30
2019-01-05T22:26:21.302Z,95.60
2019-01-05T22:28:59.295Z,95.40
2019-01-05T22:31:28.271Z,95.40
2019-01-05T22:33:59.971Z,95.40
2019-01-05T22:36:44.430Z,95.60
2019-01-05T22:39:13.361Z,95.60
2019-01-05T22:42:03.593Z,95.60
2019-01-05T22:44:32.524Z,95.60
2019-01-05T22:47:11.008Z,95.60
2019-01-05T22:49:42.852Z,95.60
2019-01-05T22:52:24.122Z,95.60
2019-01-05T22:54:53.256Z,95.60
2019-01-05T22:57:24.905Z,95.90
2019-01-05T23:00:09.252Z,95.90
2019-01-05T23:02:38.250Z,96.10
2019-01-05T23:05:07.286Z,96.10
2019-01-05T23:07:39.046Z,96.00
2019-01-05T23:10:10.103Z,96.20
2019-01-05T23:12:51.401Z,96.10
2019-01-05T23:15:22.993Z,96.40
2019-01-05T23:17:54.811Z,96.70
2019-01-05T23:20:23.722Z,96.50
2019-01-05T23:23:10.215Z,96.70
2019-01-05T23:25:39.122Z,96.80
2019-01-05T23:28:24.807Z,96.90
2019-01-05T23:31:03.243Z,96.90
2019-01-05T23:33:39.986Z,96.90
2019-01-05T23:36:11.998Z,96.90
2019-01-05T23:38:49.687Z,97.00
2019-01-05T23:41:12.650Z,97.20
2019-01-05T23:43:56.773Z,96.80
2019-01-05T23:46:42.334Z,97.00
2019-01-05T23:49:11.237Z,97.30
2019-01-05T23:51:40.114Z,97.40
2019-01-05T23:54:21.192Z,97.30
2019-01-05T23:57:08.581Z,97.30
2019-01-05T23:59:55.841Z,97.00
